Time;durP1;ratioP1;P1;durP2;ratioP2;P2;SDS_P1;SDS_P2;PMS_P1;PMS_P2;Temp;Humidity;BMP_temperature;BMP_pressure;BME280_temperature;BME280_humidity;BME280_pressure;Samples;Min_cycle;Max_cycle;Signal;HPM_P1;HPM_P2
2023/05/14 00:02:24;;;;;;;3.65;1.35;;;;;;;19.39;55.18;99550.28;4917363;29;20062;-70
2023/05/14 00:04:49;;;;;;;3.75;1.17;;;;;;;19.39;54.81;99552.06;4934348;29;20512;-70
2023/05/14 00:07:15;;;;;;;5.07;1.48;;;;;;;19.37;54.86;99549.47;4934125;29;20038;-71
2023/05/14 00:09:41;;;;;;;2.88;1.02;;;;;;;19.37;54.84;99543.34;4934177;29;20036;-70
2023/05/14 00:12:06;;;;;;;1.92;0.93;;;;;;;19.35;55.09;99550.50;4934244;28;20032;-70
2023/05/14 00:14:32;;;;;;;3.55;1.50;;;;;;;19.36;54.93;99539.84;4933798;29;20043;-70
2023/05/14 00:16:58;;;;;;;5.07;1.50;;;;;;;19.35;54.87;99534.63;4934258;28;20030;-70
2023/05/14 00:19:24;;;;;;;1.25;0.90;;;;;;;19.35;55.15;99532.84;4917388;28;20071;-70
2023/05/14 00:21:49;;;;;;;2.88;1.10;;;;;;;19.34;54.83;99543.50;4931182;28;20118;-70
2023/05/14 00:24:15;;;;;;;1.70;0.77;;;;;;;19.35;54.99;99537.25;4934156;29;20059;-70
2023/05/14 00:26:40;;;;;;;2.10;1.13;;;;;;;19.34;54.74;99543.50;4934016;28;20031;-70
2023/05/14 00:29:06;;;;;;;2.88;1.20;;;;;;;19.31;54.76;99540.09;4920887;28;20040;-70
2023/05/14 00:31:31;;;;;;;2.08;1.10;;;;;;;19.31;54.81;99534.78;4933926;29;20067;-70
2023/05/14 00:33:56;;;;;;;1.42;0.98;;;;;;;19.31;55.09;99537.44;4933865;29;20028;-71
2023/05/14 00:36:22;;;;;;;2.80;0.90;;;;;;;19.30;54.99;99533.09;4934109;29;20032;-70
2023/05/14 00:38:48;;;;;;;2.17;1.13;;;;;;;19.28;54.94;99534.09;4933813;29;20428;-70
2023/05/14 00:41:13;;;;;;;1.75;1.08;;;;;;;19.26;54.72;99528.88;4933838;29;20032;-70
2023/05/14 00:43:38;;;;;;;3.85;1.08;;;;;;;19.27;54.78;99525.31;4931901;29;20028;-69
2023/05/14 00:46:04;;;;;;;2.80;1.30;;;;;;;19.27;55.11;99527.94;4933724;28;20066;-70
2023/05/14 00:48:30;;;;;;;3.55;1.58;;;;;;;19.25;55.10;99516.59;4924152;29;20079;-70
2023/05/14 00:50:55;;;;;;;2.70;1.27;;;;;;;19.28;54.84;99518.22;4929102;29;20089;-70
2023/05/14 00:53:21;;;;;;;2.35;1.05;;;;;;;19.25;55.06;99519.25;4933684;29;20028;-69
2023/05/14 00:55:48;;;;;;;2.97;1.20;;;;;;;19.25;55.00;99513.97;4931039;28;20056;-70
2023/05/14 00:58:14;;;;;;;2.85;1.30;;;;;;;19.25;54.86;99516.59;4932768;28;20449;-70
2023/05/14 01:00:40;;;;;;;2.05;1.00;;;;;;;19.25;54.59;99513.97;4914324;29;20115;-70
2023/05/14 01:03:07;;;;;;;2.67;1.20;;;;;;;19.26;54.89;99512.16;4914510;29;20032;-70
2023/05/14 01:05:46;;;;;;;1.85;0.85;;;;;;;19.25;54.80;99507.81;4914247;29;20104;-70
2023/05/14 01:08:32;;;;;;;2.17;1.10;;;;;;;19.25;55.07;99499.88;4914495;29;20039;-71
2023/05/14 01:11:28;;;;;;;2.10;1.00;;;;;;;19.24;54.87;99500.81;4914422;29;20043;-70
2023/05/14 01:14:08;;;;;;;2.15;0.88;;;;;;;19.21;54.90;99496.53;4917251;28;20040;-70
2023/05/14 01:16:38;;;;;;;1.73;1.02;;;;;;;19.21;54.94;99496.53;4914455;29;20115;-70
2023/05/14 01:19:09;;;;;;;2.33;0.90;;;;;;;19.23;54.97;99504.41;4914385;29;20131;-70
2023/05/14 01:21:41;;;;;;;2.47;1.20;;;;;;;19.22;54.64;99492.94;4913994;29;20035;-70
2023/05/14 01:24:07;;;;;;;1.70;0.93;;;;;;;19.22;54.81;99492.94;4914240;29;20107;-70
2023/05/14 01:26:34;;;;;;;1.92;1.00;;;;;;;19.22;54.82;99487.66;4913893;29;20079;-71
2023/05/14 01:29:08;;;;;;;3.13;1.20;;;;;;;19.23;54.75;99488.53;4914043;29;20441;-69
2023/05/14 01:31:37;;;;;;;3.17;1.20;;;;;;;19.22;54.70;99487.66;4914126;29;20557;-70
2023/05/14 01:34:04;;;;;;;2.42;1.13;;;;;;;19.21;54.68;99485.13;4931699;29;20049;-70
2023/05/14 01:36:31;;;;;;;2.10;0.95;;;;;;;19.18;54.91;99480.84;4932873;29;20082;-69
2023/05/14 01:38:59;;;;;;;2.35;1.17;;;;;;;19.21;54.53;99483.31;4932853;29;20030;-69
2023/05/14 01:41:26;;;;;;;1.67;1.02;;;;;;;19.20;54.92;99478.97;4932433;29;20024;-69
2023/05/14 01:43:52;;;;;;;1.88;1.08;;;;;;;19.20;54.75;99481.59;4932941;29;20055;-69
2023/05/14 01:46:18;;;;;;;1.75;0.90;;;;;;;19.19;54.65;99477.25;4915867;29;20056;-70
2023/05/14 01:48:44;;;;;;;1.85;1.05;;;;;;;19.18;54.66;99476.38;4932788;29;20032;-70
2023/05/14 01:51:09;;;;;;;1.98;1.00;;;;;;;19.18;54.67;99470.25;4932802;29;20374;-69
2023/05/14 01:53:34;;;;;;;3.30;1.00;;;;;;;19.18;54.73;99465.81;4933089;29;20367;-70
2023/05/14 01:56:00;;;;;;;2.40;1.30;;;;;;;19.18;54.82;99463.16;4932342;28;20062;-70
2023/05/14 01:58:25;;;;;;;1.48;0.88;;;;;;;19.18;54.64;99459.69;4932616;29;20106;-69
2023/05/14 02:00:51;;;;;;;2.08;1.00;;;;;;;19.15;54.79;99459.81;4931740;29;20051;-70
2023/05/14 02:03:16;;;;;;;2.30;1.10;;;;;;;19.18;54.86;99465.81;4932624;29;20028;-68
2023/05/14 02:05:41;;;;;;;1.48;1.00;;;;;;;19.17;54.77;99464.09;4932832;29;20054;-70
2023/05/14 02:08:07;;;;;;;1.65;1.00;;;;;;;19.15;54.87;99455.41;4932575;29;20039;-70
2023/05/14 02:10:32;;;;;;;1.85;0.98;;;;;;;19.14;54.62;99455.47;4932087;29;20472;-70
2023/05/14 02:12:57;;;;;;;1.90;0.90;;;;;;;19.14;54.77;99455.47;4932439;28;20026;-70
2023/05/14 02:15:23;;;;;;;1.48;1.00;;;;;;;19.13;54.67;99457.25;4932485;28;20035;-70
2023/05/14 02:17:48;;;;;;;2.42;0.90;;;;;;;19.12;54.84;99465.28;4932327;29;20073;-70
2023/05/14 02:20:14;;;;;;;1.80;0.90;;;;;;;19.12;54.78;99465.28;4932465;28;20028;-70
2023/05/14 02:22:44;;;;;;;1.40;0.95;;;;;;;19.13;54.68;99465.19;4923717;28;20029;-70
2023/05/14 02:25:10;;;;;;;1.80;1.05;;;;;;;19.11;54.69;99469.72;4913034;29;20524;-69
2023/05/14 02:27:35;;;;;;;1.52;0.70;;;;;;;19.14;54.65;99468.69;4913500;29;20028;-70
2023/05/14 02:30:01;;;;;;;1.50;0.73;;;;;;;19.11;54.63;99480.31;4913162;29;20410;-70
2023/05/14 02:32:27;;;;;;;1.73;1.10;;;;;;;19.12;54.67;99465.28;4913282;29;20147;-70
2023/05/14 02:34:52;;;;;;;2.00;1.10;;;;;;;19.09;54.87;99470.72;4913265;29;20375;-70
2023/05/14 02:37:17;;;;;;;1.80;0.90;;;;;;;19.10;54.63;99477.72;4913179;29;20050;-69
2023/05/14 02:39:43;;;;;;;1.80;1.02;;;;;;;19.11;54.56;99474.13;4912979;29;20032;-70
2023/05/14 02:42:08;;;;;;;0.70;0.65;;;;;;;19.11;54.83;99468.84;4911774;29;20575;-70
2023/05/14 02:44:33;;;;;;;1.70;1.10;;;;;;;19.11;54.60;99468.84;4913123;29;20036;-71
2023/05/14 02:46:59;;;;;;;1.65;0.95;;;;;;;19.09;54.47;99470.72;4913215;29;20086;-71
2023/05/14 02:49:24;;;;;;;2.05;0.95;;;;;;;19.07;54.53;99477.91;4915674;29;20028;-71
2023/05/14 02:51:50;;;;;;;2.10;1.17;;;;;;;19.08;54.76;99466.38;4931803;29;20513;-70
2023/05/14 02:54:15;;;;;;;1.60;0.95;;;;;;;19.05;54.93;99470.88;4931594;29;20040;-70
2023/05/14 02:56:41;;;;;;;1.75;0.88;;;;;;;19.01;54.54;99457.88;4931912;29;20107;-70
2023/05/14 02:59:06;;;;;;;1.42;0.90;;;;;;;19.02;54.62;99468.38;4932072;29;20050;-70
2023/05/14 03:01:31;;;;;;;1.10;0.80;;;;;;;19.00;54.83;99464.97;4931889;29;20019;-69
2023/05/14 03:03:57;;;;;;;2.13;1.02;;;;;;;19.04;54.51;99469.19;4914720;29;20102;-71
2023/05/14 03:06:22;;;;;;;1.92;1.10;;;;;;;19.04;54.52;99457.75;4931887;29;20063;-70
2023/05/14 03:08:47;;;;;;;1.70;0.75;;;;;;;18.99;54.85;99444.72;4931303;29;20028;-69
2023/05/14 03:11:13;;;;;;;1.48;0.90;;;;;;;19.02;54.47;99462.22;4931688;29;20035;-70
2023/05/14 03:13:38;;;;;;;1.30;0.70;;;;;;;19.04;54.45;99447.19;4935093;29;20031;-69
2023/05/14 03:16:04;;;;;;;1.77;1.00;;;;;;;18.98;54.59;99447.47;4935096;29;20036;-69
2023/05/14 03:18:32;;;;;;;1.80;1.08;;;;;;;18.98;54.52;99443.03;4935040;29;20032;-70
2023/05/14 03:20:57;;;;;;;1.67;0.88;;;;;;;19.01;54.52;99442.88;4934987;29;20024;-71
2023/05/14 03:23:23;;;;;;;0.95;0.80;;;;;;;18.99;54.51;99449.19;4934546;29;20508;-71
2023/05/14 03:25:48;;;;;;;1.98;1.00;;;;;;;18.99;54.63;99439.44;4934867;29;20034;-70
2023/05/14 03:28:13;;;;;;;1.15;0.77;;;;;;;18.99;54.44;99443.91;4934911;28;20097;-70
2023/05/14 03:30:39;;;;;;;1.65;0.80;;;;;;;19.01;54.50;99444.66;4924407;29;20124;-70
2023/05/14 03:33:05;;;;;;;1.23;0.80;;;;;;;18.98;54.80;99448.31;4915948;29;20032;-71
2023/05/14 03:35:30;;;;;;;1.35;0.80;;;;;;;18.98;54.59;99448.31;4915871;29;20032;-69
2023/05/14 03:37:58;;;;;;;1.60;0.95;;;;;;;18.97;54.54;99451.91;4927313;29;20035;-70
2023/05/14 03:40:23;;;;;;;1.23;0.88;;;;;;;18.96;54.46;99449.31;4934613;29;20111;-70
2023/05/14 03:42:49;;;;;;;1.30;0.77;;;;;;;18.96;54.53;99444.91;4934626;29;20106;-70
2023/05/14 03:45:15;;;;;;;1.35;0.90;;;;;;;18.94;54.72;99446.78;4934825;29;20044;-70
2023/05/14 03:47:40;;;;;;;1.27;0.90;;;;;;;18.96;54.72;99447.56;4934634;29;20452;-70
2023/05/14 03:50:07;;;;;;;1.15;0.77;;;;;;;18.91;54.68;99434.59;4934300;29;20031;-70
2023/05/14 03:52:32;;;;;;;1.23;0.90;;;;;;;18.96;54.55;99441.41;4934129;29;20084;-70
2023/05/14 03:54:58;;;;;;;1.33;0.80;;;;;;;18.95;54.33;99443.19;4934298;29;20461;-69
2023/05/14 03:57:23;;;;;;;1.70;0.85;;;;;;;18.97;54.32;99440.44;4934508;29;20392;-69
2023/05/14 03:59:49;;;;;;;2.55;0.93;;;;;;;18.96;54.52;99449.31;4934361;29;20012;-70
2023/05/14 04:02:14;;;;;;;2.15;1.00;;;;;;;18.93;54.71;99447.69;4934496;28;20028;-70
2023/05/14 04:04:41;;;;;;;1.70;0.88;;;;;;;18.93;54.73;99445.06;4928875;28;20111;-69
2023/05/14 04:07:07;;;;;;;1.88;0.88;;;;;;;18.94;54.55;99451.22;4915013;29;20027;-69
2023/05/14 04:09:33;;;;;;;2.10;1.10;;;;;;;18.93;54.48;99453.00;4917586;28;20034;-70
2023/05/14 04:11:58;;;;;;;1.10;0.80;;;;;;;18.94;54.34;99462.66;4917320;28;20028;-69
2023/05/14 04:14:24;;;;;;;1.52;0.80;;;;;;;18.91;54.30;99458.38;4917245;28;20496;-70
2023/05/14 04:16:49;;;;;;;1.52;0.82;;;;;;;18.92;54.53;99453.94;4934269;28;20031;-70
2023/05/14 04:19:15;;;;;;;1.30;0.60;;;;;;;18.90;54.37;99451.34;4934143;28;20106;-70
2023/05/14 04:21:40;;;;;;;1.20;0.75;;;;;;;18.88;54.57;99452.38;4917524;29;20032;-70
2023/05/14 04:24:06;;;;;;;1.45;0.70;;;;;;;18.87;54.61;99459.47;4914519;29;20145;-70
2023/05/14 04:26:31;;;;;;;1.20;0.85;;;;;;;18.88;54.75;99462.94;4913838;29;20028;-69
2023/05/14 04:29:00;;;;;;;1.60;0.93;;;;;;;18.89;54.55;99457.59;4915106;29;20034;-69
2023/05/14 04:31:25;;;;;;;1.00;0.73;;;;;;;18.89;54.57;99469.97;4929168;28;20055;-71
2023/05/14 04:33:51;;;;;;;1.27;0.80;;;;;;;18.87;54.59;99456.81;4933802;29;20170;-70
2023/05/14 04:36:16;;;;;;;1.48;0.80;;;;;;;18.87;54.54;99471.81;4933763;29;20043;-70
2023/05/14 04:38:41;;;;;;;1.13;0.70;;;;;;;18.87;54.67;99469.16;4933830;28;20028;-70
2023/05/14 04:41:07;;;;;;;1.27;0.80;;;;;;;18.86;54.50;99478.03;4922123;28;20371;-70
2023/05/14 04:43:32;;;;;;;1.05;0.77;;;;;;;18.85;54.61;99471.06;4914878;29;20032;-70
2023/05/14 04:45:58;;;;;;;1.75;0.90;;;;;;;18.85;54.45;99478.97;4914813;29;20147;-70
2023/05/14 04:48:23;;;;;;;1.95;0.80;;;;;;;18.87;54.33;99477.97;4914717;29;20110;-69
2023/05/14 04:50:49;;;;;;;1.27;0.70;;;;;;;18.86;54.71;99470.13;4915911;29;20063;-70
2023/05/14 04:53:14;;;;;;;1.10;0.80;;;;;;;18.82;54.44;99469.41;4933653;29;20028;-70
2023/05/14 04:55:40;;;;;;;2.25;0.95;;;;;;;18.82;54.51;99480.00;4933509;29;20059;-70
2023/05/14 04:58:05;;;;;;;1.88;0.82;;;;;;;18.85;54.46;99473.69;4933586;29;20042;-69
2023/05/14 05:00:32;;;;;;;1.00;0.68;;;;;;;18.82;54.70;99484.41;4933524;29;20433;-70
2023/05/14 05:02:57;;;;;;;1.38;0.90;;;;;;;18.81;54.59;99480.06;4933672;28;20020;-69
2023/05/14 05:05:23;;;;;;;1.17;0.77;;;;;;;18.81;54.42;99488.00;4933150;28;20034;-70
2023/05/14 05:07:48;;;;;;;1.40;0.85;;;;;;;18.79;54.85;99491.59;4933575;28;20028;-69
2023/05/14 05:10:13;;;;;;;1.45;1.00;;;;;;;18.82;54.44;99484.41;4929100;28;20055;-71
2023/05/14 05:12:39;;;;;;;1.60;0.77;;;;;;;18.82;54.61;99493.22;4914567;29;20043;-68
2023/05/14 05:15:05;;;;;;;1.13;0.70;;;;;;;18.82;54.47;99487.06;4914361;29;20398;-70
2023/05/14 05:17:31;;;;;;;2.13;0.80;;;;;;;18.79;54.71;99483.66;4914273;29;20548;-70
2023/05/14 05:19:56;;;;;;;2.67;0.77;;;;;;;18.77;54.60;99493.47;4914357;29;20032;-70
2023/05/14 05:22:22;;;;;;;1.42;0.70;;;;;;;18.79;54.65;99491.59;4933150;28;20031;-70
2023/05/14 05:24:48;;;;;;;1.08;0.63;;;;;;;18.77;54.57;99498.75;4933250;28;20074;-70
2023/05/14 05:27:13;;;;;;;1.20;0.75;;;;;;;18.77;54.53;99498.75;4933227;29;20046;-69
2023/05/14 05:29:39;;;;;;;1.30;0.80;;;;;;;18.74;54.63;99501.53;4933240;28;20031;-70
2023/05/14 05:32:05;;;;;;;0.85;0.70;;;;;;;18.79;54.24;99507.44;4914470;29;20512;-70
2023/05/14 05:34:31;;;;;;;1.10;0.80;;;;;;;18.79;54.42;99502.16;4913574;29;20031;-70
2023/05/14 05:36:56;;;;;;;1.15;0.70;;;;;;;18.77;54.48;99504.03;4920731;29;20019;-68
2023/05/14 05:39:21;;;;;;;1.17;0.80;;;;;;;18.78;54.65;99510.16;4932908;29;20027;-70
2023/05/14 05:41:47;;;;;;;1.17;0.70;;;;;;;18.77;54.41;99516.38;4932981;29;20056;-70
2023/05/14 05:44:12;;;;;;;1.73;0.77;;;;;;;18.77;54.39;99514.59;4932744;29;20039;-70
2023/05/14 05:46:37;;;;;;;2.10;0.95;;;;;;;18.77;54.39;99514.59;4933026;29;20069;-71
2023/05/14 05:49:03;;;;;;;1.05;0.57;;;;;;;18.76;54.66;99526.13;4932577;29;20266;-70
2023/05/14 05:51:29;;;;;;;1.30;0.73;;;;;;;18.74;54.47;99520.03;4932645;29;20482;-70
2023/05/14 05:53:54;;;;;;;1.33;0.70;;;;;;;18.73;54.64;99522.75;4932655;29;20031;-70
2023/05/14 05:56:20;;;;;;;1.38;0.82;;;;;;;18.74;54.33;99525.31;4932612;29;20055;-70
2023/05/14 05:58:46;;;;;;;1.55;0.75;;;;;;;18.72;54.75;99515.75;4932751;29;20111;-69
2023/05/14 06:01:11;;;;;;;1.05;0.60;;;;;;;18.71;54.67;99522.84;4932410;29;20126;-69
2023/05/14 06:03:37;;;;;;;1.60;0.80;;;;;;;18.72;54.61;99516.63;4911791;28;20038;-69
2023/05/14 06:06:02;;;;;;;1.20;0.85;;;;;;;18.72;54.57;99516.63;4913813;29;20070;-70
2023/05/14 06:08:28;;;;;;;1.52;0.80;;;;;;;18.70;54.59;99518.47;4913344;29;20475;-69
2023/05/14 06:10:53;;;;;;;0.95;0.55;;;;;;;18.73;54.57;99523.63;4917145;29;20036;-70
2023/05/14 06:13:18;;;;;;;1.52;0.70;;;;;;;18.73;54.41;99522.75;4920730;28;20024;-70
2023/05/14 06:15:44;;;;;;;1.08;0.70;;;;;;;18.72;54.62;99521.91;4932458;28;20043;-70
2023/05/14 06:18:10;;;;;;;1.00;0.70;;;;;;;18.73;54.30;99523.63;4932262;28;20039;-70
2023/05/14 06:20:35;;;;;;;1.23;0.80;;;;;;;18.73;54.41;99528.91;4929998;29;20590;-70
2023/05/14 06:23:01;;;;;;;1.23;0.80;;;;;;;18.73;54.29;99523.63;4913336;29;20032;-69
2023/05/14 06:25:26;;;;;;;1.05;0.80;;;;;;;18.72;54.34;99521.91;4913415;29;20139;-69
2023/05/14 06:27:51;;;;;;;1.23;0.70;;;;;;;18.71;54.55;99522.84;4913451;29;20063;-70
2023/05/14 06:30:20;;;;;;;1.73;0.80;;;;;;;18.71;54.38;99519.34;4913024;29;20032;-70
2023/05/14 06:32:45;;;;;;;1.38;0.80;;;;;;;18.70;54.25;99521.13;4922207;29;20028;-70
2023/05/14 06:35:10;;;;;;;0.93;0.63;;;;;;;18.70;54.43;99522.91;4932134;29;20457;-71
2023/05/14 06:37:36;;;;;;;0.77;0.70;;;;;;;18.70;54.49;99525.56;4932279;28;20016;-70
2023/05/14 06:40:02;;;;;;;1.00;0.70;;;;;;;18.71;54.38;99530.78;4932156;28;20390;-70
2023/05/14 06:42:28;;;;;;;1.05;0.60;;;;;;;18.71;54.57;99524.63;4932173;28;20102;-69
2023/05/14 06:44:53;;;;;;;1.23;0.70;;;;;;;18.69;54.38;99524.69;4928528;29;20473;-70
2023/05/14 06:47:19;;;;;;;0.50;0.40;;;;;;;18.70;54.14;99533.50;4912455;29;20020;-69
2023/05/14 06:49:44;;;;;;;1.48;0.70;;;;;;;18.72;54.57;99526.34;4918058;29;20036;-70
2023/05/14 06:52:10;;;;;;;1.05;0.80;;;;;;;18.72;54.35;99527.19;4931750;29;20035;-70
2023/05/14 06:54:35;;;;;;;0.60;0.60;;;;;;;18.68;54.65;99533.56;4931750;28;20075;-69
2023/05/14 06:57:00;;;;;;;1.35;0.70;;;;;;;18.69;54.50;99535.28;4931951;29;20401;-69
2023/05/14 06:59:26;;;;;;;1.00;0.60;;;;;;;18.71;54.42;99529.91;4931708;29;20028;-70
2023/05/14 07:01:51;;;;;;;0.93;0.70;;;;;;;18.72;54.37;99521.91;4931723;29;20040;-69
2023/05/14 07:04:17;;;;;;;1.08;0.77;;;;;;;18.70;54.56;99529.03;4931997;29;20032;-70
2023/05/14 07:06:42;;;;;;;0.75;0.60;;;;;;;18.69;54.38;99534.44;4931730;29;20020;-70
2023/05/14 07:09:08;;;;;;;0.95;0.80;;;;;;;18.71;54.50;99525.50;4931730;28;20508;-70
2023/05/14 07:11:33;;;;;;;1.70;0.90;;;;;;;18.71;54.46;99536.06;4931639;29;20042;-70
2023/05/14 07:13:59;;;;;;;1.15;0.73;;;;;;;18.72;54.34;99521.91;4931123;29;20028;-69
2023/05/14 07:16:25;;;;;;;1.90;0.88;;;;;;;18.69;54.44;99529.16;4931933;28;20123;-69
2023/05/14 07:18:50;;;;;;;1.95;1.00;;;;;;;18.68;54.53;99530.91;4943206;28;20496;-69
2023/05/14 07:21:16;;;;;;;1.20;0.73;;;;;;;18.68;54.55;99533.56;4912505;29;20513;-70
2023/05/14 07:23:41;;;;;;;1.08;0.60;;;;;;;18.68;54.40;99524.78;4912389;29;20066;-70
2023/05/14 07:26:07;;;;;;;1.38;0.80;;;;;;;18.72;54.30;99524.56;4912591;29;20071;-71
2023/05/14 07:28:33;;;;;;;1.23;0.90;;;;;;;18.68;54.13;99525.63;4912267;29;20498;-70
2023/05/14 07:30:58;;;;;;;1.10;0.88;;;;;;;18.71;54.56;99527.28;4928543;28;20062;-70
2023/05/14 07:33:24;;;;;;;1.40;0.80;;;;;;;18.72;54.29;99527.19;4931430;28;20028;-70
2023/05/14 07:35:50;;;;;;;1.50;0.70;;;;;;;18.68;54.19;99525.63;4931358;28;20482;-70
2023/05/14 07:38:16;;;;;;;0.80;0.70;;;;;;;18.70;54.29;99523.75;4931491;29;20035;-69
2023/05/14 07:40:42;;;;;;;1.38;0.90;;;;;;;18.70;54.49;99526.41;4931339;28;20169;-69
2023/05/14 07:43:07;;;;;;;1.40;0.90;;;;;;;18.74;54.30;99533.25;4931123;28;20050;-70
2023/05/14 07:45:33;;;;;;;0.70;0.70;;;;;;;18.75;54.15;99527.03;4927434;28;20032;-69
2023/05/14 07:47:58;;;;;;;1.58;0.90;;;;;;;18.76;54.04;99523.47;4912549;29;20540;-68
2023/05/14 07:50:24;;;;;;;1.25;0.98;;;;;;;18.75;54.24;99527.03;4922517;29;20482;-69
2023/05/14 07:52:49;;;;;;;1.02;0.70;;;;;;;18.75;54.36;99527.03;4931181;29;20103;-69
2023/05/14 07:55:15;;;;;;;1.10;0.88;;;;;;;18.77;54.33;99530.47;4931321;29;20110;-69
2023/05/14 07:57:41;;;;;;;1.15;0.70;;;;;;;18.76;54.18;99533.19;4930973;29;20466;-70
2023/05/14 08:00:07;;;;;;;1.38;0.82;;;;;;;18.78;54.45;99537.47;4933566;29;20032;-69
2023/05/14 08:02:32;;;;;;;1.63;1.00;;;;;;;18.81;54.28;99532.94;4934633;29;20046;-70
2023/05/14 08:04:58;;;;;;;1.27;0.80;;;;;;;18.82;54.24;99532.88;4934356;29;20027;-70
2023/05/14 08:07:23;;;;;;;1.05;0.63;;;;;;;18.87;53.98;99532.63;4934307;29;20059;-70
2023/05/14 08:09:49;;;;;;;1.33;0.80;;;;;;;18.85;54.08;99531.84;4934230;28;20496;-70
2023/05/14 08:12:15;;;;;;;1.75;1.00;;;;;;;18.86;54.12;99525.63;4933779;28;20032;-70
2023/05/14 08:14:40;;;;;;;1.52;0.98;;;;;;;18.85;54.00;99526.56;4934236;28;20027;-69
2023/05/14 08:17:06;;;;;;;1.63;1.00;;;;;;;18.87;53.90;99529.97;4928662;28;20021;-69
2023/05/14 08:19:31;;;;;;;1.70;1.00;;;;;;;18.90;54.03;99537.78;4914925;29;20638;-68
2023/05/14 08:21:57;;;;;;;1.30;0.95;;;;;;;18.91;53.96;99536.84;4915197;29;20032;-69
2023/05/14 08:24:22;;;;;;;1.33;0.93;;;;;;;18.90;53.87;99532.47;4915045;29;20094;-70
2023/05/14 08:26:47;;;;;;;1.70;1.05;;;;;;;18.91;54.06;99534.19;4917624;28;20027;-69
2023/05/14 08:29:13;;;;;;;1.85;1.10;;;;;;;18.90;54.02;99535.97;4934013;28;20500;-70
2023/05/14 08:31:39;;;;;;;2.10;1.42;;;;;;;18.95;54.03;99532.25;4933899;28;20077;-69
2023/05/14 08:34:04;;;;;;;1.58;1.00;;;;;;;18.91;53.93;99539.47;4931304;28;20162;-70
2023/05/14 08:36:30;;;;;;;1.25;0.80;;;;;;;18.90;53.83;99533.31;4919750;28;20404;-69
2023/05/14 08:38:55;;;;;;;1.23;1.00;;;;;;;18.94;53.97;99541.97;4956916;28;20161;-67
2023/05/14 08:41:21;;;;;;;1.83;1.13;;;;;;;18.95;54.00;99546.31;4914779;29;20075;-67
2023/05/14 08:43:52;;;;;;;1.45;0.90;;;;;;;18.97;53.83;99543.59;4923351;29;20024;-67
2023/05/14 08:46:22;;;;;;;1.88;1.08;;;;;;;18.99;53.90;99552.31;4933646;29;20061;-68
2023/05/14 08:48:54;;;;;;;1.65;1.00;;;;;;;18.98;53.77;99548.81;4933426;29;20038;-67
2023/05/14 08:51:19;;;;;;;2.55;1.00;;;;;;;18.99;53.95;99555.78;4933300;29;20063;-67
2023/05/14 08:53:46;;;;;;;1.88;1.10;;;;;;;18.98;54.05;99554.09;4930453;28;20055;-68
2023/05/14 08:56:13;;;;;;;2.15;1.17;;;;;;;18.99;53.71;99555.78;4933143;28;20023;-67
2023/05/14 08:58:38;;;;;;;1.75;1.10;;;;;;;18.99;54.02;99561.09;4933559;28;20111;-67
2023/05/14 09:01:04;;;;;;;2.45;1.48;;;;;;;19.02;53.78;99566.22;4924015;29;20107;-67
2023/05/14 09:03:30;;;;;;;1.92;1.15;;;;;;;19.02;53.84;99568.00;4914355;29;20072;-67
2023/05/14 09:05:56;;;;;;;1.95;1.20;;;;;;;19.01;53.83;99568.94;4913068;29;20032;-67
2023/05/14 09:08:22;;;;;;;2.72;1.42;;;;;;;19.00;54.03;99562.81;4914218;29;20024;-67
2023/05/14 09:10:47;;;;;;;1.40;1.10;;;;;;;19.00;53.79;99565.47;4913769;29;20042;-68
2023/05/14 09:13:13;;;;;;;2.30;1.38;;;;;;;19.00;53.84;99568.09;4922886;29;20064;-67
2023/05/14 09:15:40;;;;;;;2.67;1.30;;;;;;;19.01;53.71;99561.88;4947845;28;20032;-68
2023/05/14 09:18:05;;;;;;;1.85;1.17;;;;;;;19.03;53.78;99557.38;4932885;29;20070;-67
2023/05/14 09:20:31;;;;;;;2.40;1.08;;;;;;;19.02;54.04;99560.94;4947576;29;20035;-67
2023/05/14 09:22:58;;;;;;;1.98;1.30;;;;;;;19.03;53.99;99561.84;4933171;29;20038;-67
2023/05/14 09:25:30;;;;;;;1.88;1.15;;;;;;;19.05;53.68;99550.22;4929922;29;20028;-67
2023/05/14 09:27:56;;;;;;;1.50;1.20;;;;;;;19.07;53.93;99557.25;4913887;29;20028;-68
2023/05/14 09:30:23;;;;;;;1.80;1.20;;;;;;;19.05;53.86;99554.66;4913992;29;20043;-67
2023/05/14 09:32:49;;;;;;;1.98;1.40;;;;;;;19.06;53.86;99556.38;4914054;29;20411;-68
2023/05/14 09:35:22;;;;;;;1.83;1.20;;;;;;;19.07;53.63;99563.38;4915277;28;20036;-67
2023/05/14 09:37:50;;;;;;;1.67;1.30;;;;;;;19.09;53.90;99550.06;4932708;28;20039;-67
2023/05/14 09:40:17;;;;;;;1.45;1.00;;;;;;;19.07;53.59;99557.25;4932379;28;20533;-68
2023/05/14 09:42:42;;;;;;;1.95;1.30;;;;;;;19.07;53.96;99555.44;4931189;28;20023;-70
2023/05/14 09:45:09;;;;;;;1.70;1.15;;;;;;;19.09;53.76;99560.66;4926920;29;20028;-69
2023/05/14 09:47:36;;;;;;;2.17;1.40;;;;;;;19.11;53.69;99564.06;4932709;29;20410;-68
2023/05/14 09:50:02;;;;;;;1.73;1.20;;;;;;;19.11;53.60;99558.78;4932512;29;20027;-69
2023/05/14 09:52:27;;;;;;;1.80;1.38;;;;;;;19.10;53.87;99565.00;4932782;29;20504;-70
2023/05/14 09:54:53;;;;;;;2.80;1.63;;;;;;;19.11;53.48;99564.06;4932167;28;20608;-69
2023/05/14 09:57:19;;;;;;;1.33;1.05;;;;;;;19.12;53.61;99565.81;4932283;29;20059;-70
2023/05/14 09:59:44;;;;;;;1.95;1.20;;;;;;;19.12;53.60;99560.50;4932481;29;20036;-69
2023/05/14 10:02:23;;;;;;;1.98;1.23;;;;;;;19.15;53.69;99565.63;4932620;29;20103;-69
2023/05/14 10:04:50;;;;;;;2.33;1.50;;;;;;;19.15;53.51;99560.34;4932348;29;20024;-70
2023/05/14 10:07:23;;;;;;;2.13;1.40;;;;;;;19.16;53.55;99562.03;4931738;29;20032;-69
2023/05/14 10:09:53;;;;;;;2.10;1.52;;;;;;;19.18;53.33;99560.19;4931827;29;20059;-70
2023/05/14 10:12:22;;;;;;;1.98;1.30;;;;;;;19.19;53.52;99553.97;4932338;29;20039;-68
2023/05/14 10:14:52;;;;;;;2.75;1.58;;;;;;;19.19;53.17;99552.16;4932166;29;20039;-69
2023/05/14 10:17:20;;;;;;;2.45;1.45;;;;;;;19.20;53.52;99558.31;4932121;29;20036;-70
2023/05/14 10:19:57;;;;;;;2.08;1.50;;;;;;;19.23;53.26;99552.84;4932122;29;20043;-70
2023/05/14 10:22:30;;;;;;;2.47;1.50;;;;;;;19.22;53.33;99556.44;4931621;29;20036;-69
2023/05/14 10:24:55;;;;;;;2.55;1.60;;;;;;;19.23;53.44;99552.00;4931895;29;20109;-69
2023/05/14 10:27:22;;;;;;;2.88;1.48;;;;;;;19.25;53.64;99556.28;4932195;28;20048;-67
2023/05/14 10:29:55;;;;;;;2.03;1.55;;;;;;;19.26;53.43;99552.69;4930731;28;20036;-70
2023/05/14 10:32:25;;;;;;;2.20;1.50;;;;;;;19.27;53.43;99551.75;4932238;28;20031;-70
2023/05/14 10:34:52;;;;;;;2.42;1.60;;;;;;;19.29;53.33;99562.28;4931930;28;20074;-69
2023/05/14 10:37:20;;;;;;;2.17;1.40;;;;;;;19.28;53.40;99558.75;4931550;29;20501;-69
2023/05/14 10:39:50;;;;;;;2.95;1.63;;;;;;;19.29;53.30;99557.84;4922241;28;20170;-69
2023/05/14 10:42:42;;;;;;;2.53;1.65;;;;;;;19.29;53.54;99557.84;4912932;29;20036;-70
2023/05/14 10:45:13;;;;;;;2.45;1.63;;;;;;;19.30;53.51;99554.25;4915115;28;20064;-69
2023/05/14 10:47:43;;;;;;;1.70;1.15;;;;;;;19.30;53.32;99554.25;4913104;29;20031;-67
2023/05/14 10:50:11;;;;;;;2.03;1.65;;;;;;;19.32;53.31;99552.38;4924933;29;20035;-69
2023/05/14 10:52:37;;;;;;;2.17;1.38;;;;;;;19.32;53.33;99547.09;4929697;29;20020;-68
2023/05/14 10:55:08;;;;;;;3.25;1.70;;;;;;;19.34;53.19;99543.50;4911411;28;20048;-67
2023/05/14 10:57:36;;;;;;;2.80;1.88;;;;;;;19.35;53.11;99546.06;4912796;29;20040;-70
2023/05/14 11:00:02;;;;;;;2.97;1.60;;;;;;;19.35;53.25;99537.25;4924095;29;20027;-68
2023/05/14 11:02:38;;;;;;;2.55;1.65;;;;;;;19.38;53.40;99545.06;4918243;29;20546;-69
2023/05/14 11:05:10;;;;;;;3.00;1.50;;;;;;;19.37;53.23;99538.91;4912785;29;20548;-70
2023/05/14 11:07:38;;;;;;;2.50;1.48;;;;;;;19.39;53.34;99530.88;4912326;29;20483;-69
2023/05/14 11:10:05;;;;;;;2.10;1.50;;;;;;;19.39;53.03;99533.53;4923726;28;20028;-69
2023/05/14 11:12:32;;;;;;;3.10;1.50;;;;;;;19.39;53.21;99534.41;4931531;29;20059;-69
2023/05/14 11:15:00;;;;;;;2.38;1.58;;;;;;;19.42;53.22;99541.31;4931305;28;20020;-70
2023/05/14 11:17:27;;;;;;;2.40;1.60;;;;;;;19.44;53.09;99540.31;4931372;28;20024;-69
2023/05/14 11:19:53;;;;;;;2.40;1.65;;;;;;;19.44;53.17;99539.44;4921333;28;20411;-70
2023/05/14 11:22:18;;;;;;;2.15;1.40;;;;;;;19.45;53.37;99531.41;4911851;29;20039;-70
2023/05/14 11:24:44;;;;;;;2.33;1.70;;;;;;;19.47;53.26;99535.78;4912563;29;20039;-69
2023/05/14 11:27:10;;;;;;;2.17;1.50;;;;;;;19.46;53.28;99532.25;4912291;29;20529;-69
2023/05/14 11:29:43;;;;;;;2.28;1.40;;;;;;;19.47;53.35;99528.69;4919689;28;20042;-70
2023/05/14 11:32:09;;;;;;;3.67;2.03;;;;;;;19.48;53.34;99524.25;4930482;29;20032;-70